Thunder radar more information blitzortung!


Radar de pluja more information rain snow radar


Visita la nostra xarxa de llocs de meteo:

Template documentation
and downloads

And another site



No particular awareness of the weather is required.    There are no Weather-warnings

Pagina Historial Weather Underground text

Diari Resum Juliol 9, 2017 Unitats:  Tant    Imperial   Mètric
« Previous Dia
SegĂźent Dia »
Diari Setmana Mensual Anual Personalitzada
  Maxima: Minima: Media:
Temperatura: 90 °F /  32.2 °C 66.7 °F /  19.3 °C 80.1 °F /  26.7 °C
Punt de rosada: 65.1 °F /  18.4 °C 58.5 °F /  14.7 °C 62.1 °F /  16.7 °C
Humitat: 83 % 37 % 57 %
Wind Speed: 12.7 mph /  20.4 km/h - 4.5 mph /  7.2 km/h
RĂ fegues de vent: 12.7 mph /  20.4 km/h - -
Vent:- - SSE
Pression baro: 29.9 in /  1011.7 hPa 29.8 in /  1009.0 hPa -
Precipitacions: 0.04 in /  1.0 mm    
Historical Graphs
 
 
Dades de taula per Juliol 9, 2017
Temps Temperatura Punt de rosada Pression baro Vent Wind Speed RĂ fegues de vent Humitat Rainfall Rate (Hourly)
00:00 68.4 °F /  20.2 °C 59 °F /  15.0 °C 29.8 in /  1009.0 hPa SW 1 mph /  1.6 km/h 3 mph /  4.8 km/h 72 % 0 in /  0.0 mm
00:03 72.5 °F /  22.5 °C 64.6 °F /  18.1 °C 29.9 in /  1011.7 hPa West 1.2 mph /  1.9 km/h   76 % 0 in /  0.0 mm
00:10 68.4 °F /  20.2 °C 59 °F /  15.0 °C 29.8 in /  1009.0 hPa SW 2 mph /  3.2 km/h 3 mph /  4.8 km/h 72 % 0 in /  0.0 mm
00:20 69.3 °F /  20.7 °C 59.5 °F /  15.3 °C 29.8 in /  1009.0 hPa WSW 2 mph /  3.2 km/h 3 mph /  4.8 km/h 71 % 0 in /  0.0 mm
00:30 69.1 °F /  20.6 °C 59.4 °F /  15.2 °C 29.8 in /  1010.0 hPa WSW 1 mph /  1.6 km/h 2 mph /  3.2 km/h 71 % 0 in /  0.0 mm
00:40 68.7 °F /  20.4 °C 58.8 °F /  14.9 °C 29.8 in /  1010.0 hPa Calm   2 mph /  3.2 km/h 71 % 0 in /  0.0 mm
00:50 68 °F /  20.0 °C 58.6 °F /  14.8 °C 29.8 in /  1010.0 hPa SW 2 mph /  3.2 km/h 3 mph /  4.8 km/h 72 % 0 in /  0.0 mm
01:00 67.6 °F /  19.8 °C 59.2 °F /  15.1 °C 29.8 in /  1010.0 hPa SW 1 mph /  1.6 km/h 2 mph /  3.2 km/h 74 % 0 in /  0.0 mm
01:10 67.3 °F /  19.6 °C 58.6 °F /  14.8 °C 29.8 in /  1010.0 hPa SW 1 mph /  1.6 km/h 2 mph /  3.2 km/h 74 % 0 in /  0.0 mm
01:20 67.1 °F /  19.5 °C 58.8 °F /  14.9 °C 29.8 in /  1010.0 hPa SW 1 mph /  1.6 km/h 1 mph /  1.6 km/h 75 % 0 in /  0.0 mm
01:30 66.9 °F /  19.4 °C 59.2 °F /  15.1 °C 29.8 in /  1010.0 hPa Calm   1 mph /  1.6 km/h 76 % 0 in /  0.0 mm
01:40 66.9 °F /  19.4 °C 59.2 °F /  15.1 °C 29.8 in /  1010.0 hPa East 1 mph /  1.6 km/h 1 mph /  1.6 km/h 76 % 0 in /  0.0 mm
01:50 66.9 °F /  19.4 °C 59.2 °F /  15.1 °C 29.8 in /  1010.0 hPa Calm   2 mph /  3.2 km/h 76 % 0 in /  0.0 mm
02:00 66.7 °F /  19.3 °C 58.8 °F /  14.9 °C 29.8 in /  1010.0 hPa West 1 mph /  1.6 km/h 2 mph /  3.2 km/h 76 % 0 in /  0.0 mm
02:10 66.9 °F /  19.4 °C 59.2 °F /  15.1 °C 29.8 in /  1010.0 hPa WSW 1 mph /  1.6 km/h 3 mph /  4.8 km/h 76 % 0 in /  0.0 mm
02:20 67.3 °F /  19.6 °C 59.7 °F /  15.4 °C 29.8 in /  1010.0 hPa SW 2 mph /  3.2 km/h 3 mph /  4.8 km/h 77 % 0 in /  0.0 mm
02:30 67.6 °F /  19.8 °C 60.3 °F /  15.7 °C 29.8 in /  1010.0 hPa SW 2 mph /  3.2 km/h 3 mph /  4.8 km/h 77 % 0 in /  0.0 mm
02:40 68.4 °F /  20.2 °C 61 °F /  16.1 °C 29.8 in /  1010.0 hPa Calm   3 mph /  4.8 km/h 77 % 0 in /  0.0 mm
02:50 70.2 °F /  21.2 °C 62.2 °F /  16.8 °C 29.8 in /  1010.0 hPa SSE 1 mph /  1.6 km/h 2 mph /  3.2 km/h 76 % 0 in /  0.0 mm
03:00 70.5 °F /  21.4 °C 61.9 °F /  16.6 °C 29.8 in /  1010.0 hPa SSE 1 mph /  1.6 km/h 2 mph /  3.2 km/h 74 % 0 in /  0.0 mm
03:10 71.2 °F /  21.8 °C 62.4 °F /  16.9 °C 29.8 in /  1010.0 hPa SSW 1 mph /  1.6 km/h 1 mph /  1.6 km/h 74 % 0 in /  0.0 mm
03:20 71.8 °F /  22.1 °C 62.8 °F /  17.1 °C 29.8 in /  1010.0 hPa SSW 1 mph /  1.6 km/h 2 mph /  3.2 km/h 73 % 0 in /  0.0 mm
03:30 72.7 °F /  22.6 °C 62.8 °F /  17.1 °C 29.8 in /  1010.0 hPa ENE 1 mph /  1.6 km/h 5 mph /  8.0 km/h 71 % 0 in /  0.0 mm
03:40 73.6 °F /  23.1 °C 63.1 °F /  17.3 °C 29.8 in /  1010.0 hPa NNE 3 mph /  4.8 km/h 3 mph /  4.8 km/h 70 % 0 in /  0.0 mm
03:50 74.5 °F /  23.6 °C 63.7 °F /  17.6 °C 29.8 in /  1010.0 hPa NNE 1 mph /  1.6 km/h 2 mph /  3.2 km/h 69 % 0 in /  0.0 mm
04:00 74.8 °F /  23.8 °C 63.1 °F /  17.3 °C 29.8 in /  1010.7 hPa Calm   3 mph /  4.8 km/h 67 % 0 in /  0.0 mm
04:10 76.1 °F /  24.5 °C 63.5 °F /  17.5 °C 29.8 in /  1010.7 hPa East 2 mph /  3.2 km/h 3 mph /  4.8 km/h 65 % 0 in /  0.0 mm
04:20 75.9 °F /  24.4 °C 63.3 °F /  17.4 °C 29.8 in /  1010.0 hPa ENE 1 mph /  1.6 km/h 2 mph /  3.2 km/h 65 % 0 in /  0.0 mm
04:30 77.9 °F /  25.5 °C 64.2 °F /  17.9 °C 29.8 in /  1010.7 hPa ESE 1 mph /  1.6 km/h 2 mph /  3.2 km/h 63 % 0 in /  0.0 mm
04:40 78.3 °F /  25.7 °C 64.2 °F /  17.9 °C 29.8 in /  1010.7 hPa SSW 1 mph /  1.6 km/h 2 mph /  3.2 km/h 62 % 0 in /  0.0 mm
04:50 78.3 °F /  25.7 °C 64.2 °F /  17.9 °C 29.8 in /  1010.7 hPa East 1 mph /  1.6 km/h 3 mph /  4.8 km/h 62 % 0 in /  0.0 mm
05:00 79 °F /  26.1 °C 63.9 °F /  17.7 °C 29.8 in /  1010.7 hPa NNW 1 mph /  1.6 km/h 3 mph /  4.8 km/h 60 % 0 in /  0.0 mm
05:10 79 °F /  26.1 °C 63.9 °F /  17.7 °C 29.8 in /  1010.7 hPa WNW 2 mph /  3.2 km/h 6 mph /  9.7 km/h 60 % 0 in /  0.0 mm
10:19 79.9 °F /  26.6 °C 64.2 °F /  17.9 °C 29.9 in /  1011.7 hPa WNW 2.3 mph /  3.7 km/h 2.4 mph /  3.9 km/h 59 % 0 in /  0.0 mm
10:24 80.1 °F /  26.7 °C 64 °F /  17.8 °C 29.8 in /  1010.7 hPa SW 5.8 mph /  9.3 km/h 5.8 mph /  9.3 km/h 58 % 0 in /  0.0 mm
10:29 79.5 °F /  26.4 °C 63 °F /  17.2 °C 29.8 in /  1010.7 hPa WSW 5.8 mph /  9.3 km/h 5.8 mph /  9.3 km/h 57 % 0 in /  0.0 mm
10:34 79.7 °F /  26.5 °C 63.1 °F /  17.3 °C 29.8 in /  1010.7 hPa WSW 5.8 mph /  9.3 km/h 5.8 mph /  9.3 km/h 57 % 0 in /  0.0 mm
10:39 80.2 °F /  26.8 °C 63.7 °F /  17.6 °C 29.8 in /  1010.7 hPa WSW 5.8 mph /  9.3 km/h 5.8 mph /  9.3 km/h 57 % 0 in /  0.0 mm
10:44 80.6 °F /  27.0 °C 63.5 °F /  17.5 °C 29.8 in /  1010.7 hPa NNW 4.6 mph /  7.4 km/h 4.6 mph /  7.4 km/h 56 % 0 in /  0.0 mm
10:49 81 °F /  27.2 °C 63.3 °F /  17.4 °C 29.8 in /  1010.7 hPa SSW 5.8 mph /  9.3 km/h 5.8 mph /  9.3 km/h 55 % 0 in /  0.0 mm
10:54 81.3 °F /  27.4 °C 63.7 °F /  17.6 °C 29.8 in /  1010.7 hPa West 5.8 mph /  9.3 km/h 5.8 mph /  9.3 km/h 55 % 0 in /  0.0 mm
10:59 81.1 °F /  27.3 °C 63.3 °F /  17.4 °C 29.8 in /  1010.7 hPa WSW 7.1 mph /  11.4 km/h 7.1 mph /  11.4 km/h 55 % 0 in /  0.0 mm
11:04 81.3 °F /  27.4 °C 63.1 °F /  17.3 °C 29.8 in /  1010.7 hPa SSW 2.3 mph /  3.7 km/h 2.3 mph /  3.7 km/h 54 % 0 in /  0.0 mm
11:09 81.5 °F /  27.5 °C 63.3 °F /  17.4 °C 29.8 in /  1010.7 hPa WSW 5.8 mph /  9.3 km/h 5.8 mph /  9.3 km/h 54 % 0 in /  0.0 mm
11:14 82.6 °F /  28.1 °C 63.7 °F /  17.6 °C 29.8 in /  1010.7 hPa WSW 2.6 mph /  4.2 km/h 2.6 mph /  4.2 km/h 53 % 0 in /  0.0 mm
11:19 83.1 °F /  28.4 °C 64.2 °F /  17.9 °C 29.8 in /  1010.7 hPa SW 3.3 mph /  5.3 km/h 3.3 mph /  5.3 km/h 53 % 0 in /  0.0 mm
11:24 83.1 °F /  28.4 °C 63.7 °F /  17.6 °C 29.8 in /  1010.7 hPa West 4.7 mph /  7.6 km/h 4.7 mph /  7.6 km/h 52 % 0 in /  0.0 mm
11:29 83.5 °F /  28.6 °C 64 °F /  17.8 °C 29.8 in /  1010.7 hPa West 3.5 mph /  5.6 km/h 3.5 mph /  5.6 km/h 52 % 0 in /  0.0 mm
11:32 84.2 °F /  29.0 °C 63.5 °F /  17.5 °C 29.8 in /  1010.7 hPa SW 2.3 mph /  3.7 km/h 2.3 mph /  3.7 km/h 50 % 0 in /  0.0 mm
11:37 84.9 °F /  29.4 °C 64.2 °F /  17.9 °C 29.8 in /  1010.7 hPa WSW 3.8 mph /  6.1 km/h 3.8 mph /  6.1 km/h 50 % 0 in /  0.0 mm
11:42 83.5 °F /  28.6 °C 63 °F /  17.2 °C 29.8 in /  1010.0 hPa SW 4.6 mph /  7.4 km/h 4.6 mph /  7.4 km/h 50 % 0 in /  0.0 mm
11:47 83.7 °F /  28.7 °C 63 °F /  17.2 °C 29.8 in /  1010.0 hPa SSW 4.6 mph /  7.4 km/h 4.6 mph /  7.4 km/h 50 % 0 in /  0.0 mm
11:52 83.8 °F /  28.8 °C 63.1 °F /  17.3 °C 29.8 in /  1010.0 hPa WSW 5.9 mph /  9.5 km/h 5.9 mph /  9.5 km/h 50 % 0 in /  0.0 mm
11:57 84 °F /  28.9 °C 62.2 °F /  16.8 °C 29.8 in /  1010.7 hPa SW 6.9 mph /  11.1 km/h 6.9 mph /  11.1 km/h 48 % 0 in /  0.0 mm
12:02 84.7 °F /  29.3 °C 63 °F /  17.2 °C 29.8 in /  1010.7 hPa South 3.5 mph /  5.6 km/h 3.5 mph /  5.6 km/h 48 % 0 in /  0.0 mm
12:07 84.9 °F /  29.4 °C 62.4 °F /  16.9 °C 29.8 in /  1010.7 hPa West 8.1 mph /  13.0 km/h 8.1 mph /  13.0 km/h 47 % 0 in /  0.0 mm
12:12 84.9 °F /  29.4 °C 62.4 °F /  16.9 °C 29.8 in /  1010.7 hPa South 6.9 mph /  11.1 km/h 6.9 mph /  11.1 km/h 47 % 0 in /  0.0 mm
12:17 85.3 °F /  29.6 °C 62.8 °F /  17.1 °C 29.8 in /  1010.7 hPa WSW 5.8 mph /  9.3 km/h 5.8 mph /  9.3 km/h 47 % 0 in /  0.0 mm
12:22 86.2 °F /  30.1 °C 63 °F /  17.2 °C 29.8 in /  1010.7 hPa SSW 2.3 mph /  3.7 km/h 2.3 mph /  3.7 km/h 46 % 0 in /  0.0 mm
12:27 86.9 °F /  30.5 °C 63.7 °F /  17.6 °C 29.8 in /  1010.7 hPa SW 2.3 mph /  3.7 km/h 2.3 mph /  3.7 km/h 46 % 0 in /  0.0 mm
12:32 86.5 °F /  30.3 °C 63.3 °F /  17.4 °C 29.8 in /  1010.7 hPa WSW 4.6 mph /  7.4 km/h 4.6 mph /  7.4 km/h 46 % 0 in /  0.0 mm
12:37 86.7 °F /  30.4 °C 62.8 °F /  17.1 °C 29.8 in /  1010.7 hPa NNE 4.6 mph /  7.4 km/h 4.6 mph /  7.4 km/h 45 % 0 in /  0.0 mm
12:42 86.7 °F /  30.4 °C 62.8 °F /  17.1 °C 29.8 in /  1010.0 hPa SSW 5.8 mph /  9.3 km/h 5.8 mph /  9.3 km/h 45 % 0 in /  0.0 mm
12:47 86 °F /  30.0 °C 61.5 °F /  16.4 °C 29.8 in /  1010.0 hPa NNW 8.1 mph /  13.0 km/h 8.1 mph /  13.0 km/h 44 % 0 in /  0.0 mm
12:52 86 °F /  30.0 °C 61.5 °F /  16.4 °C 29.8 in /  1010.0 hPa WSW 4.6 mph /  7.4 km/h 4.6 mph /  7.4 km/h 44 % 0 in /  0.0 mm
12:57 86.5 °F /  30.3 °C 62.1 °F /  16.7 °C 29.8 in /  1010.7 hPa SW 5.4 mph /  8.7 km/h 5.4 mph /  8.7 km/h 44 % 0 in /  0.0 mm
13:02 87.6 °F /  30.9 °C 63 °F /  17.2 °C 29.8 in /  1010.7 hPa SSE 3.5 mph /  5.6 km/h 3.5 mph /  5.6 km/h 44 % 0 in /  0.0 mm
13:07 88.2 °F /  31.2 °C 62.8 °F /  17.1 °C 29.8 in /  1010.7 hPa SW 3.5 mph /  5.6 km/h 3.5 mph /  5.6 km/h 43 % 0 in /  0.0 mm
13:12 88.7 °F /  31.5 °C 63.3 °F /  17.4 °C 29.8 in /  1010.0 hPa South 4.6 mph /  7.4 km/h 4.6 mph /  7.4 km/h 43 % 0 in /  0.0 mm
13:17 88.2 °F /  31.2 °C 62.8 °F /  17.1 °C 29.8 in /  1010.0 hPa SW 3.5 mph /  5.6 km/h 3.5 mph /  5.6 km/h 43 % 0 in /  0.0 mm
13:22 88.3 °F /  31.3 °C 62.2 °F /  16.8 °C 29.8 in /  1010.0 hPa WSW 5.8 mph /  9.3 km/h 5.8 mph /  9.3 km/h 42 % 0 in /  0.0 mm
13:27 88.2 °F /  31.2 °C 62.2 °F /  16.8 °C 29.8 in /  1010.7 hPa SW 4.6 mph /  7.4 km/h 4.6 mph /  7.4 km/h 42 % 0 in /  0.0 mm
13:32 88.7 °F /  31.5 °C 62.8 °F /  17.1 °C 29.8 in /  1010.7 hPa SW 4.6 mph /  7.4 km/h 4.6 mph /  7.4 km/h 42 % 0 in /  0.0 mm
13:37 89.1 °F /  31.7 °C 62.2 °F /  16.8 °C 29.8 in /  1010.7 hPa West 4.6 mph /  7.4 km/h 4.6 mph /  7.4 km/h 41 % 0 in /  0.0 mm
13:42 88.7 °F /  31.5 °C 62.1 °F /  16.7 °C 29.8 in /  1010.7 hPa West 5.8 mph /  9.3 km/h 5.8 mph /  9.3 km/h 41 % 0 in /  0.0 mm
13:47 87.6 °F /  30.9 °C 61.7 °F /  16.5 °C 29.8 in /  1010.7 hPa South 5.8 mph /  9.3 km/h 5.8 mph /  9.3 km/h 42 % 0 in /  0.0 mm
13:52 87.8 °F /  31.0 °C 60.4 °F /  15.8 °C 29.8 in /  1010.7 hPa WSW 4.3 mph /  6.9 km/h 4.3 mph /  6.9 km/h 40 % 0 in /  0.0 mm
13:57 88 °F /  31.1 °C 61.3 °F /  16.3 °C 29.8 in /  1010.0 hPa WSW 5.4 mph /  8.7 km/h 5.4 mph /  8.7 km/h 41 % 0 in /  0.0 mm
14:02 88.5 °F /  31.4 °C 61.2 °F /  16.2 °C 29.8 in /  1010.0 hPa NW 5.8 mph /  9.3 km/h 5.8 mph /  9.3 km/h 40 % 0 in /  0.0 mm
14:07 87.3 °F /  30.7 °C 60.1 °F /  15.6 °C 29.8 in /  1010.0 hPa ESE 5.4 mph /  8.7 km/h 5.4 mph /  8.7 km/h 40 % 0 in /  0.0 mm
14:12 87.6 °F /  30.9 °C 60.3 °F /  15.7 °C 29.8 in /  1009.0 hPa SW 5.8 mph /  9.3 km/h 5.8 mph /  9.3 km/h 40 % 0 in /  0.0 mm
14:17 87.3 °F /  30.7 °C 60.1 °F /  15.6 °C 29.8 in /  1009.0 hPa ENE 5.8 mph /  9.3 km/h 5.8 mph /  9.3 km/h 40 % 0 in /  0.0 mm
14:22 88 °F /  31.1 °C 59.9 °F /  15.5 °C 29.8 in /  1009.0 hPa NE 3.6 mph /  5.8 km/h 3.6 mph /  5.8 km/h 39 % 0 in /  0.0 mm
14:27 87.4 °F /  30.8 °C 60.3 °F /  15.7 °C 29.8 in /  1010.0 hPa WSW 5.8 mph /  9.3 km/h 5.8 mph /  9.3 km/h 40 % 0 in /  0.0 mm
14:32 87.4 °F /  30.8 °C 60.3 °F /  15.7 °C 29.8 in /  1010.0 hPa South 4.6 mph /  7.4 km/h 4.6 mph /  7.4 km/h 40 % 0 in /  0.0 mm
14:37 88.3 °F /  31.3 °C 60.3 °F /  15.7 °C 29.8 in /  1010.0 hPa West 3.8 mph /  6.1 km/h 4 mph /  6.4 km/h 39 % 0 in /  0.0 mm
14:42 88 °F /  31.1 °C 59.9 °F /  15.5 °C 29.8 in /  1010.0 hPa South 3.5 mph /  5.6 km/h 3.5 mph /  5.6 km/h 39 % 0 in /  0.0 mm
14:47 89.1 °F /  31.7 °C 60.1 °F /  15.6 °C 29.8 in /  1010.0 hPa East 3.5 mph /  5.6 km/h 3.5 mph /  5.6 km/h 38 % 0 in /  0.0 mm
14:52 88.5 °F /  31.4 °C 60.4 °F /  15.8 °C 29.8 in /  1010.0 hPa SW 5.8 mph /  9.3 km/h 5.8 mph /  9.3 km/h 39 % 0 in /  0.0 mm
14:57 87.4 °F /  30.8 °C 60.3 °F /  15.7 °C 29.8 in /  1010.0 hPa SW 5.8 mph /  9.3 km/h 5.8 mph /  9.3 km/h 40 % 0 in /  0.0 mm
15:02 88.9 °F /  31.6 °C 61.3 °F /  16.3 °C 29.8 in /  1010.0 hPa SW 5.8 mph /  9.3 km/h 5.8 mph /  9.3 km/h 40 % 0 in /  0.0 mm
15:07 89.4 °F /  31.9 °C 61.2 °F /  16.2 °C 29.8 in /  1010.0 hPa South 4.6 mph /  7.4 km/h 4.6 mph /  7.4 km/h 39 % 0 in /  0.0 mm
15:12 89.4 °F /  31.9 °C 61.2 °F /  16.2 °C 29.8 in /  1010.0 hPa South 4.6 mph /  7.4 km/h 4.6 mph /  7.4 km/h 39 % 0 in /  0.0 mm
15:17 87.8 °F /  31.0 °C 59.7 °F /  15.4 °C 29.8 in /  1010.0 hPa South 5.8 mph /  9.3 km/h 5.8 mph /  9.3 km/h 39 % 0 in /  0.0 mm
15:22 87.1 °F /  30.6 °C 59.7 °F /  15.4 °C 29.8 in /  1010.0 hPa WSW 5.8 mph /  9.3 km/h 5.8 mph /  9.3 km/h 40 % 0 in /  0.0 mm
15:27 86.9 °F /  30.5 °C 59.7 °F /  15.4 °C 29.8 in /  1010.0 hPa SSW 3.5 mph /  5.6 km/h 3.5 mph /  5.6 km/h 40 % 0 in /  0.0 mm
15:32 86.4 °F /  30.2 °C 59.9 °F /  15.5 °C 29.8 in /  1010.0 hPa SSW 4.6 mph /  7.4 km/h 4.6 mph /  7.4 km/h 41 % 0 in /  0.0 mm
15:37 86 °F /  30.0 °C 59.5 °F /  15.3 °C 29.8 in /  1010.0 hPa South 5.8 mph /  9.3 km/h 5.8 mph /  9.3 km/h 41 % 0 in /  0.0 mm
15:42 86.9 °F /  30.5 °C 60.4 °F /  15.8 °C 29.8 in /  1010.0 hPa WSW 4.6 mph /  7.4 km/h 4.6 mph /  7.4 km/h 41 % 0 in /  0.0 mm
15:47 86.7 °F /  30.4 °C 60.3 °F /  15.7 °C 29.8 in /  1010.0 hPa SW 8.1 mph /  13.0 km/h 8.1 mph /  13.0 km/h 41 % 0 in /  0.0 mm
15:52 86.7 °F /  30.4 °C 60.3 °F /  15.7 °C 29.8 in /  1010.0 hPa West 9 mph /  14.5 km/h 9 mph /  14.5 km/h 41 % 0 in /  0.0 mm
15:57 87.4 °F /  30.8 °C 60.8 °F /  16.0 °C 29.8 in /  1010.0 hPa West 4.6 mph /  7.4 km/h 4.6 mph /  7.4 km/h 41 % 0 in /  0.0 mm
16:02 88.9 °F /  31.6 °C 61.3 °F /  16.3 °C 29.8 in /  1010.0 hPa South 5.8 mph /  9.3 km/h 5.8 mph /  9.3 km/h 40 % 0 in /  0.0 mm
16:07 88.5 °F /  31.4 °C 60.4 °F /  15.8 °C 29.8 in /  1010.0 hPa West 4.6 mph /  7.4 km/h 4.6 mph /  7.4 km/h 39 % 0 in /  0.0 mm
16:12 89.4 °F /  31.9 °C 61.2 °F /  16.2 °C 29.8 in /  1010.0 hPa West 3.5 mph /  5.6 km/h 3.5 mph /  5.6 km/h 39 % 0 in /  0.0 mm
16:17 89.8 °F /  32.1 °C 61.5 °F /  16.4 °C 29.8 in /  1010.0 hPa SW 5.6 mph /  9.0 km/h 5.6 mph /  9.0 km/h 39 % 0 in /  0.0 mm
16:22 90 °F /  32.2 °C 61.7 °F /  16.5 °C 29.8 in /  1010.0 hPa South 6.9 mph /  11.1 km/h 6.9 mph /  11.1 km/h 39 % 0 in /  0.0 mm
16:27 88.9 °F /  31.6 °C 60.1 °F /  15.6 °C 29.8 in /  1010.0 hPa SSW 4.6 mph /  7.4 km/h 4.6 mph /  7.4 km/h 38 % 0 in /  0.0 mm
16:32 89.8 °F /  32.1 °C 60.8 °F /  16.0 °C 29.8 in /  1010.0 hPa SW 4.6 mph /  7.4 km/h 4.6 mph /  7.4 km/h 38 % 0 in /  0.0 mm
16:37 88.2 °F /  31.2 °C 59.4 °F /  15.2 °C 29.8 in /  1010.0 hPa SW 9.2 mph /  14.8 km/h 9.2 mph /  14.8 km/h 38 % 0 in /  0.0 mm
16:38 88.2 °F /  31.2 °C 59.4 °F /  15.2 °C 29.8 in /  1010.0 hPa South 3.5 mph /  5.6 km/h 3.5 mph /  5.6 km/h 38 % 0 in /  0.0 mm
16:43 87.8 °F /  31.0 °C 59 °F /  15.0 °C 29.8 in /  1010.0 hPa SW 8.1 mph /  13.0 km/h 8.1 mph /  13.0 km/h 38 % 0 in /  0.0 mm
16:48 86.7 °F /  30.4 °C 58.8 °F /  14.9 °C 29.8 in /  1010.0 hPa SW 9.2 mph /  14.8 km/h 9.2 mph /  14.8 km/h 39 % 0 in /  0.0 mm
16:53 88.2 °F /  31.2 °C 60.1 °F /  15.6 °C 29.8 in /  1010.0 hPa SW 5.8 mph /  9.3 km/h 5.8 mph /  9.3 km/h 39 % 0 in /  0.0 mm
16:58 88.5 °F /  31.4 °C 60.4 °F /  15.8 °C 29.8 in /  1010.0 hPa SSW 8.1 mph /  13.0 km/h 8.1 mph /  13.0 km/h 39 % 0 in /  0.0 mm
17:03 89.2 °F /  31.8 °C 60.3 °F /  15.7 °C 29.8 in /  1010.0 hPa SW 6.9 mph /  11.1 km/h 6.9 mph /  11.1 km/h 38 % 0 in /  0.0 mm
17:08 89.6 °F /  32.0 °C 60.6 °F /  15.9 °C 29.8 in /  1010.0 hPa SW 10.4 mph /  16.7 km/h 10.4 mph /  16.7 km/h 38 % 0 in /  0.0 mm
17:09 89.4 °F /  31.9 °C 60.4 °F /  15.8 °C 29.8 in /  1010.0 hPa SSW 6.9 mph /  11.1 km/h 6.9 mph /  11.1 km/h 38 % 0 in /  0.0 mm
17:14 89.1 °F /  31.7 °C 60.1 °F /  15.6 °C 29.8 in /  1010.0 hPa West 5.8 mph /  9.3 km/h 5.8 mph /  9.3 km/h 38 % 0 in /  0.0 mm
17:19 89.6 °F /  32.0 °C 60.6 °F /  15.9 °C 29.8 in /  1010.0 hPa South 8.1 mph /  13.0 km/h 8.1 mph /  13.0 km/h 38 % 0 in /  0.0 mm
17:24 89.1 °F /  31.7 °C 60.1 °F /  15.6 °C 29.8 in /  1010.0 hPa SSW 6.9 mph /  11.1 km/h 6.9 mph /  11.1 km/h 38 % 0 in /  0.0 mm
17:29 88.7 °F /  31.5 °C 59.7 °F /  15.4 °C 29.8 in /  1010.0 hPa South 9.8 mph /  15.8 km/h 9.8 mph /  15.8 km/h 38 % 0 in /  0.0 mm
17:34 88.5 °F /  31.4 °C 58.8 °F /  14.9 °C 29.8 in /  1010.0 hPa SSW 8.1 mph /  13.0 km/h 8.1 mph /  13.0 km/h 37 % 0 in /  0.0 mm
17:39 87.3 °F /  30.7 °C 58.6 °F /  14.8 °C 29.8 in /  1010.0 hPa SSW 11.5 mph /  18.5 km/h 11.5 mph /  18.5 km/h 38 % 0 in /  0.0 mm
17:44 86.5 °F /  30.3 °C 58.6 °F /  14.8 °C 29.8 in /  1010.0 hPa SSW 5.8 mph /  9.3 km/h 5.8 mph /  9.3 km/h 39 % 0 in /  0.0 mm
17:49 86.4 °F /  30.2 °C 58.5 °F /  14.7 °C 29.8 in /  1010.0 hPa WSW 6.9 mph /  11.1 km/h 6.9 mph /  11.1 km/h 39 % 0 in /  0.0 mm
17:54 86.5 °F /  30.3 °C 58.6 °F /  14.8 °C 29.8 in /  1010.0 hPa South 7.4 mph /  11.9 km/h 7.4 mph /  11.9 km/h 39 % 0 in /  0.0 mm
17:59 85.6 °F /  29.8 °C 58.5 °F /  14.7 °C 29.8 in /  1010.0 hPa West 6.9 mph /  11.1 km/h 6.9 mph /  11.1 km/h 40 % 0 in /  0.0 mm
18:04 86.5 °F /  30.3 °C 59.4 °F /  15.2 °C 29.8 in /  1010.0 hPa SW 5.8 mph /  9.3 km/h 5.8 mph /  9.3 km/h 40 % 0 in /  0.0 mm
18:09 86.5 °F /  30.3 °C 59.4 °F /  15.2 °C 29.8 in /  1009.0 hPa SW 3.5 mph /  5.6 km/h 3.5 mph /  5.6 km/h 40 % 0 in /  0.0 mm
18:14 86.7 °F /  30.4 °C 59.5 °F /  15.3 °C 29.8 in /  1009.0 hPa SSE 5.8 mph /  9.3 km/h 5.8 mph /  9.3 km/h 40 % 0 in /  0.0 mm
18:19 87.1 °F /  30.6 °C 59.7 °F /  15.4 °C 29.8 in /  1009.0 hPa SSW 5.8 mph /  9.3 km/h 5.8 mph /  9.3 km/h 40 % 0 in /  0.0 mm
18:24 87.6 °F /  30.9 °C 60.3 °F /  15.7 °C 29.8 in /  1009.0 hPa WSW 5.8 mph /  9.3 km/h 5.8 mph /  9.3 km/h 40 % 0 in /  0.0 mm
18:29 87.6 °F /  30.9 °C 60.3 °F /  15.7 °C 29.8 in /  1009.0 hPa SW 6.9 mph /  11.1 km/h 6.9 mph /  11.1 km/h 40 % 0 in /  0.0 mm
18:34 88.2 °F /  31.2 °C 60.1 °F /  15.6 °C 29.8 in /  1009.0 hPa WSW 4.9 mph /  7.9 km/h 4.9 mph /  7.9 km/h 39 % 0 in /  0.0 mm
18:39 87.3 °F /  30.7 °C 60.1 °F /  15.6 °C 29.8 in /  1010.0 hPa SW 11.5 mph /  18.5 km/h 11.5 mph /  18.5 km/h 40 % 0 in /  0.0 mm
18:44 86.9 °F /  30.5 °C 59.7 °F /  15.4 °C 29.8 in /  1010.0 hPa SW 8.1 mph /  13.0 km/h 8.1 mph /  13.0 km/h 40 % 0 in /  0.0 mm
18:49 86.4 °F /  30.2 °C 59.2 °F /  15.1 °C 29.8 in /  1010.0 hPa SW 6.9 mph /  11.1 km/h 6.9 mph /  11.1 km/h 40 % 0 in /  0.0 mm
18:54 86.4 °F /  30.2 °C 59.9 °F /  15.5 °C 29.8 in /  1009.0 hPa WSW 4.6 mph /  7.4 km/h 4.6 mph /  7.4 km/h 41 % 0 in /  0.0 mm
18:59 86.5 °F /  30.3 °C 60.1 °F /  15.6 °C 29.8 in /  1009.0 hPa South 5.8 mph /  9.3 km/h 5.8 mph /  9.3 km/h 41 % 0 in /  0.0 mm
19:04 86.7 °F /  30.4 °C 60.3 °F /  15.7 °C 29.8 in /  1009.0 hPa WSW 3.5 mph /  5.6 km/h 3.5 mph /  5.6 km/h 41 % 0 in /  0.0 mm
19:09 86.7 °F /  30.4 °C 60.3 °F /  15.7 °C 29.8 in /  1010.0 hPa SW 4.6 mph /  7.4 km/h 4.6 mph /  7.4 km/h 41 % 0 in /  0.0 mm
19:14 86.5 °F /  30.3 °C 60.1 °F /  15.6 °C 29.8 in /  1010.0 hPa WSW 4.9 mph /  7.9 km/h 4.9 mph /  7.9 km/h 41 % 0 in /  0.0 mm
19:19 86 °F /  30.0 °C 59.5 °F /  15.3 °C 29.8 in /  1010.0 hPa WSW 3.3 mph /  5.3 km/h 3.3 mph /  5.3 km/h 41 % 0 in /  0.0 mm
19:20 72.5 °F /  22.5 °C 64.9 °F /  18.3 °C 29.9 in /  1011.7 hPa NE 3 mph /  4.8 km/h 3 mph /  4.8 km/h 77 % 0 in /  0.0 mm
19:24 86 °F /  30.0 °C 59.5 °F /  15.3 °C 29.8 in /  1010.0 hPa WSW 6.9 mph /  11.1 km/h 6.9 mph /  11.1 km/h 41 % 0 in /  0.0 mm
19:29 85.8 °F /  29.9 °C 60.1 °F /  15.6 °C 29.8 in /  1010.0 hPa SSE 3.5 mph /  5.6 km/h 3.5 mph /  5.6 km/h 42 % 0 in /  0.0 mm
19:34 85.3 °F /  29.6 °C 59.5 °F /  15.3 °C 29.8 in /  1010.0 hPa SE 5.8 mph /  9.3 km/h 5.8 mph /  9.3 km/h 42 % 0 in /  0.0 mm
19:39 83.8 °F /  28.8 °C 59.5 °F /  15.3 °C 29.8 in /  1010.0 hPa SSW 4.6 mph /  7.4 km/h 4.6 mph /  7.4 km/h 44 % 0 in /  0.0 mm
19:40 72.1 °F /  22.3 °C 64.9 °F /  18.3 °C 29.9 in /  1011.7 hPa NE 3 mph /  4.8 km/h 3 mph /  4.8 km/h 78 % 0 in /  0.0 mm
19:44 82.2 °F /  27.9 °C 60.1 °F /  15.6 °C 29.8 in /  1010.0 hPa East 12.7 mph /  20.4 km/h 12.7 mph /  20.4 km/h 47 % 0 in /  0.0 mm
19:49 81.5 °F /  27.5 °C 59.9 °F /  15.5 °C 29.8 in /  1010.0 hPa ENE 12.7 mph /  20.4 km/h 12.7 mph /  20.4 km/h 48 % 0 in /  0.0 mm
19:50 72.1 °F /  22.3 °C 64.9 °F /  18.3 °C 29.9 in /  1011.7 hPa NE 2 mph /  3.2 km/h 3 mph /  4.8 km/h 78 % 0 in /  0.0 mm
19:54 81.3 °F /  27.4 °C 60.3 °F /  15.7 °C 29.8 in /  1010.0 hPa ESE 10.4 mph /  16.7 km/h 10.4 mph /  16.7 km/h 49 % 0 in /  0.0 mm
19:59 80.6 °F /  27.0 °C 60.3 °F /  15.7 °C 29.8 in /  1010.0 hPa ENE 6.9 mph /  11.1 km/h 6.9 mph /  11.1 km/h 50 % 0 in /  0.0 mm
20:00 72 °F /  22.2 °C 64.8 °F /  18.2 °C 29.8 in /  1010.7 hPa NE 3 mph /  4.8 km/h 3 mph /  4.8 km/h 78 % 0 in /  0.0 mm
20:04 80.1 °F /  26.7 °C 60.8 °F /  16.0 °C 29.8 in /  1010.0 hPa ENE 10.4 mph /  16.7 km/h 10.4 mph /  16.7 km/h 52 % 0 in /  0.0 mm
20:09 79.7 °F /  26.5 °C 60.4 °F /  15.8 °C 29.8 in /  1010.0 hPa East 8.1 mph /  13.0 km/h 8.1 mph /  13.0 km/h 52 % 0 in /  0.0 mm
20:10 72 °F /  22.2 °C 64.8 °F /  18.2 °C 29.8 in /  1010.7 hPa NE 2 mph /  3.2 km/h 3 mph /  4.8 km/h 78 % 0 in /  0.0 mm
20:14 79.3 °F /  26.3 °C 60.6 °F /  15.9 °C 29.8 in /  1010.0 hPa East 6.9 mph /  11.1 km/h 6.9 mph /  11.1 km/h 53 % 0 in /  0.0 mm
20:19 79.2 °F /  26.2 °C 61.2 °F /  16.2 °C 29.8 in /  1010.0 hPa NE 7.6 mph /  12.2 km/h 7.6 mph /  12.2 km/h 54 % 0 in /  0.0 mm
20:20 71.8 °F /  22.1 °C 64.9 °F /  18.3 °C 29.9 in /  1011.7 hPa NE 1 mph /  1.6 km/h 3 mph /  4.8 km/h 79 % 0 in /  0.0 mm
20:24 78.8 °F /  26.0 °C 61.3 °F /  16.3 °C 29.8 in /  1010.0 hPa ESE 6.9 mph /  11.1 km/h 6.9 mph /  11.1 km/h 55 % 0 in /  0.0 mm
20:29 78.8 °F /  26.0 °C 61.9 °F /  16.6 °C 29.8 in /  1010.0 hPa East 10.4 mph /  16.7 km/h 10.4 mph /  16.7 km/h 56 % 0 in /  0.0 mm
20:30 71.8 °F /  22.1 °C 64.9 °F /  18.3 °C 29.8 in /  1010.7 hPa NE 2 mph /  3.2 km/h 2 mph /  3.2 km/h 79 % 0 in /  0.0 mm
20:34 78.8 °F /  26.0 °C 61.9 °F /  16.6 °C 29.8 in /  1010.0 hPa East 9.2 mph /  14.8 km/h 9.2 mph /  14.8 km/h 56 % 0 in /  0.0 mm
20:39 78.4 °F /  25.8 °C 61.9 °F /  16.6 °C 29.8 in /  1010.0 hPa East 10.4 mph /  16.7 km/h 10.4 mph /  16.7 km/h 57 % 0 in /  0.0 mm
20:40 71.6 °F /  22.0 °C 64.8 °F /  18.2 °C 29.8 in /  1010.7 hPa NE 1 mph /  1.6 km/h 2 mph /  3.2 km/h 79 % 0 in /  0.0 mm
20:44 78.1 °F /  25.6 °C 62.1 °F /  16.7 °C 29.8 in /  1010.0 hPa NE 6.2 mph /  10.0 km/h 6.2 mph /  10.0 km/h 58 % 0 in /  0.0 mm
20:49 77.9 °F /  25.5 °C 62.4 °F /  16.9 °C 29.8 in /  1010.0 hPa East 9.2 mph /  14.8 km/h 9.2 mph /  14.8 km/h 59 % 0 in /  0.0 mm
20:50 71.6 °F /  22.0 °C 64.8 °F /  18.2 °C 29.9 in /  1011.7 hPa NE 1 mph /  1.6 km/h 2 mph /  3.2 km/h 79 % 0 in /  0.0 mm
20:54 77.5 °F /  25.3 °C 62.6 °F /  17.0 °C 29.8 in /  1010.0 hPa SE 5.8 mph /  9.3 km/h 5.8 mph /  9.3 km/h 60 % 0 in /  0.0 mm
20:59 77.5 °F /  25.3 °C 62.6 °F /  17.0 °C 29.8 in /  1010.0 hPa ESE 6.9 mph /  11.1 km/h 6.9 mph /  11.1 km/h 60 % 0 in /  0.0 mm
21:00 71.6 °F /  22.0 °C 64.8 °F /  18.2 °C 29.8 in /  1010.7 hPa NE 1 mph /  1.6 km/h 1 mph /  1.6 km/h 79 % 0 in /  0.0 mm
21:04 77.2 °F /  25.1 °C 62.8 °F /  17.1 °C 29.8 in /  1010.0 hPa East 11.5 mph /  18.5 km/h 11.5 mph /  18.5 km/h 61 % 0 in /  0.0 mm
21:09 77.2 °F /  25.1 °C 62.8 °F /  17.1 °C 29.8 in /  1010.0 hPa ENE 4.9 mph /  7.9 km/h 4.9 mph /  7.9 km/h 61 % 0 in /  0.0 mm
21:10 71.2 °F /  21.8 °C 64.4 °F /  18.0 °C 29.8 in /  1010.7 hPa NE 1 mph /  1.6 km/h 2 mph /  3.2 km/h 79 % 0 in /  0.0 mm
21:14 76.8 °F /  24.9 °C 62.8 °F /  17.1 °C 29.8 in /  1010.0 hPa East 8.1 mph /  13.0 km/h 8.1 mph /  13.0 km/h 62 % 0 in /  0.0 mm
21:19 76.5 °F /  24.7 °C 63.3 °F /  17.4 °C 29.8 in /  1010.0 hPa East 5.8 mph /  9.3 km/h 5.8 mph /  9.3 km/h 64 % 0 in /  0.0 mm
21:20 71.1 °F /  21.7 °C 64.6 °F /  18.1 °C 29.9 in /  1011.7 hPa Calm   2 mph /  3.2 km/h 80 % 0 in /  0.0 mm
21:24 76.3 °F /  24.6 °C 63.1 °F /  17.3 °C 29.8 in /  1010.7 hPa East 6.9 mph /  11.1 km/h 6.9 mph /  11.1 km/h 64 % 0 in /  0.0 mm
21:29 76.3 °F /  24.6 °C 63.7 °F /  17.6 °C 29.8 in /  1010.7 hPa ESE 6.9 mph /  11.1 km/h 6.9 mph /  11.1 km/h 65 % 0 in /  0.0 mm
21:30 70.9 °F /  21.6 °C 64.4 °F /  18.0 °C 29.9 in /  1011.7 hPa Calm   1 mph /  1.6 km/h 80 % 0 in /  0.0 mm
21:34 75.9 °F /  24.4 °C 63.7 °F /  17.6 °C 29.8 in /  1010.7 hPa NNE 5.8 mph /  9.3 km/h 5.8 mph /  9.3 km/h 66 % 0 in /  0.0 mm
21:39 75.7 °F /  24.3 °C 64 °F /  17.8 °C 29.8 in /  1010.7 hPa ESE 6.9 mph /  11.1 km/h 6.9 mph /  11.1 km/h 67 % 0 in /  0.0 mm
21:40 70.7 °F /  21.5 °C 64.2 °F /  17.9 °C 29.9 in /  1011.7 hPa Calm     80 % 0 in /  0.0 mm
21:44 75.6 °F /  24.2 °C 63.9 °F /  17.7 °C 29.8 in /  1010.7 hPa East 5.8 mph /  9.3 km/h 5.8 mph /  9.3 km/h 67 % 0 in /  0.0 mm
21:49 75.4 °F /  24.1 °C 63.7 °F /  17.6 °C 29.8 in /  1010.7 hPa ENE 3.5 mph /  5.6 km/h 3.5 mph /  5.6 km/h 67 % 0 in /  0.0 mm
21:50 70.5 °F /  21.4 °C 64 °F /  17.8 °C 29.9 in /  1011.7 hPa Calm   1 mph /  1.6 km/h 80 % 0 in /  0.0 mm
21:54 75.2 °F /  24.0 °C 63.9 °F /  17.7 °C 29.9 in /  1011.7 hPa ENE 3.6 mph /  5.8 km/h 3.6 mph /  5.8 km/h 68 % 0 in /  0.0 mm
21:59 75.2 °F /  24.0 °C 63.9 °F /  17.7 °C 29.9 in /  1011.7 hPa NW 5.8 mph /  9.3 km/h 5.8 mph /  9.3 km/h 68 % 0 in /  0.0 mm
22:00 70.3 °F /  21.3 °C 63.9 °F /  17.7 °C 29.9 in /  1011.7 hPa Calm     80 % 0 in /  0.0 mm
22:04 74.8 °F /  23.8 °C 64.4 °F /  18.0 °C 29.9 in /  1011.7 hPa East 5.8 mph /  9.3 km/h 5.8 mph /  9.3 km/h 70 % 0 in /  0.0 mm
22:09 74.8 °F /  23.8 °C 64.8 °F /  18.2 °C 29.9 in /  1011.7 hPa East 6 mph /  9.7 km/h 6 mph /  9.7 km/h 71 % 0 in /  0.0 mm
22:10 70 °F /  21.1 °C 63.5 °F /  17.5 °C 29.9 in /  1011.7 hPa Calm     80 % 0 in /  0.0 mm
22:14 74.7 °F /  23.7 °C 64.6 °F /  18.1 °C 29.9 in /  1011.7 hPa East 5.8 mph /  9.3 km/h 5.8 mph /  9.3 km/h 71 % 0 in /  0.0 mm
22:19 74.7 °F /  23.7 °C 64.6 °F /  18.1 °C 29.9 in /  1011.7 hPa ESE 5.8 mph /  9.3 km/h 5.8 mph /  9.3 km/h 71 % 0 in /  0.0 mm
22:20 70 °F /  21.1 °C 63.9 °F /  17.7 °C 29.9 in /  1011.7 hPa Calm     81 % 0 in /  0.0 mm
22:24 74.5 °F /  23.6 °C 64.9 °F /  18.3 °C 29.9 in /  1011.7 hPa North 5.8 mph /  9.3 km/h 5.8 mph /  9.3 km/h 72 % 0 in /  0.0 mm
22:29 74.3 °F /  23.5 °C 64.8 °F /  18.2 °C 29.9 in /  1011.7 hPa ENE 9.2 mph /  14.8 km/h 9.2 mph /  14.8 km/h 72 % 0 in /  0.0 mm
22:30 70.2 °F /  21.2 °C 64 °F /  17.8 °C 29.9 in /  1011.7 hPa Calm   1 mph /  1.6 km/h 81 % 0 in /  0.0 mm
22:34 74.3 °F /  23.5 °C 65.1 °F /  18.4 °C 29.9 in /  1011.7 hPa NNE 4.6 mph /  7.4 km/h 4.6 mph /  7.4 km/h 73 % 0 in /  0.0 mm
22:39 74.1 °F /  23.4 °C 64.9 °F /  18.3 °C 29.9 in /  1011.7 hPa ENE 2.6 mph /  4.2 km/h 2.9 mph /  4.7 km/h 73 % 0 in /  0.0 mm
22:40 70 °F /  21.1 °C 63.9 °F /  17.7 °C 29.9 in /  1011.7 hPa NNE 1 mph /  1.6 km/h 1 mph /  1.6 km/h 81 % 0 in /  0.0 mm
22:44 73.9 °F /  23.3 °C 64.8 °F /  18.2 °C 29.9 in /  1011.7 hPa NNE 3.5 mph /  5.6 km/h 3.5 mph /  5.6 km/h 73 % 0 in /  0.0 mm
22:49 73.9 °F /  23.3 °C 64.8 °F /  18.2 °C 29.9 in /  1011.7 hPa ENE 4.6 mph /  7.4 km/h 4.6 mph /  7.4 km/h 73 % 0 in /  0.0 mm
22:50 69.8 °F /  21.0 °C 63.7 °F /  17.6 °C 29.9 in /  1011.7 hPa Calm     81 % 0 in /  0.0 mm
22:54 73.9 °F /  23.3 °C 65.1 °F /  18.4 °C 29.8 in /  1010.7 hPa East 3.5 mph /  5.6 km/h 3.5 mph /  5.6 km/h 74 % 0 in /  0.0 mm
22:59 73.8 °F /  23.2 °C 64.9 °F /  18.3 °C 29.8 in /  1010.7 hPa ENE 4.6 mph /  7.4 km/h 4.6 mph /  7.4 km/h 74 % 0 in /  0.0 mm
23:00 69.4 °F /  20.8 °C 63.7 °F /  17.6 °C 29.9 in /  1011.7 hPa Calm     82 % 0 in /  0.0 mm
23:04 73.8 °F /  23.2 °C 64.9 °F /  18.3 °C 29.8 in /  1010.7 hPa NE 3.5 mph /  5.6 km/h 3.5 mph /  5.6 km/h 74 % 0 in /  0.0 mm
23:09 73.8 °F /  23.2 °C 64.9 °F /  18.3 °C 29.8 in /  1010.7 hPa NNE 3.5 mph /  5.6 km/h 3.5 mph /  5.6 km/h 74 % 0 in /  0.0 mm
23:10 69.4 °F /  20.8 °C 63.7 °F /  17.6 °C 29.9 in /  1011.7 hPa Calm   2 mph /  3.2 km/h 82 % 0 in /  0.0 mm
23:14 73.6 °F /  23.1 °C 64.8 °F /  18.2 °C 29.8 in /  1010.7 hPa NE 4.6 mph /  7.4 km/h 4.6 mph /  7.4 km/h 74 % 0 in /  0.0 mm
23:19 73.6 °F /  23.1 °C 64.8 °F /  18.2 °C 29.8 in /  1010.7 hPa ENE 3.5 mph /  5.6 km/h 3.5 mph /  5.6 km/h 74 % 0 in /  0.0 mm
23:20 69.3 °F /  20.7 °C 63.9 °F /  17.7 °C 29.9 in /  1011.7 hPa ENE 1 mph /  1.6 km/h 2 mph /  3.2 km/h 83 % 0 in /  0.0 mm
23:24 73.4 °F /  23.0 °C 64.6 °F /  18.1 °C 29.9 in /  1011.7 hPa ENE 3.5 mph /  5.6 km/h 3.5 mph /  5.6 km/h 74 % 0 in /  0.0 mm
23:29 73.4 °F /  23.0 °C 64.6 °F /  18.1 °C 29.9 in /  1011.7 hPa ESE 3.1 mph /  5.0 km/h 3.1 mph /  5.0 km/h 74 % 0 in /  0.0 mm
23:30 69.3 °F /  20.7 °C 63.9 °F /  17.7 °C 29.9 in /  1011.7 hPa ENE 1 mph /  1.6 km/h 1 mph /  1.6 km/h 83 % 0 in /  0.0 mm
23:34 73.4 °F /  23.0 °C 64.9 °F /  18.3 °C 29.9 in /  1011.7 hPa NE 2.4 mph /  3.9 km/h 2.4 mph /  3.9 km/h 75 % 0 in /  0.0 mm
23:39 73.2 °F /  22.9 °C 64.8 °F /  18.2 °C 29.9 in /  1011.7 hPa NE 2.3 mph /  3.7 km/h 2.3 mph /  3.7 km/h 75 % 0 in /  0.0 mm
23:40 69.3 °F /  20.7 °C 63.9 °F /  17.7 °C 29.9 in /  1011.7 hPa NE 1 mph /  1.6 km/h 1 mph /  1.6 km/h 83 % 0 in /  0.0 mm
23:44 73.2 °F /  22.9 °C 65.1 °F /  18.4 °C 29.9 in /  1011.7 hPa ENE 2.4 mph /  3.9 km/h 2.4 mph /  3.9 km/h 76 % 0 in /  0.0 mm
23:49 73 °F /  22.8 °C 64.6 °F /  18.1 °C 29.9 in /  1011.7 hPa ENE 4.3 mph /  6.9 km/h 4.3 mph /  6.9 km/h 75 % 0 in /  0.0 mm
23:50 68.9 °F /  20.5 °C 63.5 °F /  17.5 °C 29.8 in /  1010.7 hPa Calm   3 mph /  4.8 km/h 83 % 0 in /  0.0 mm
23:54 73 °F /  22.8 °C 64.9 °F /  18.3 °C 29.9 in /  1011.7 hPa NNE 3.5 mph /  5.6 km/h 3.5 mph /  5.6 km/h 76 % 0 in /  0.0 mm
23:59 72.9 °F /  22.7 °C 64.8 °F /  18.2 °C 29.9 in /  1011.7 hPa ENE 4.6 mph /  7.4 km/h 4.6 mph /  7.4 km/h 76 % 0 in /  0.0 mm
Meteo Sesrovires
Elogis d' Weather Underground - 3.75 mb

Guio original per  Jim McMurry - jmcmurry@mwt.net Adaptat per a la plantilla per  Wim van der Kuil - Leuven-Template.eu

Trobareu la nostra informacio del temps tambe a:

Weather Underground

AWEKAS